Time;durP1;ratioP1;P1;durP2;ratioP2;P2;SDS_P1;SDS_P2;PMS_P1;PMS_P2;Temp;Humidity;BMP_temperature;BMP_pressure;BME280_temperature;BME280_humidity;BME280_pressure;Samples;Min_cycle;Max_cycle;Signal;HPM_P1;HPM_P2
2022/10/05 00:01:55;;;;;;;6.50;4.97;;;;;;;;;;5071290;28;20239;-47
2022/10/05 00:04:22;;;;;;;8.13;4.50;;;;;;;;;;5071211;28;20658;-47
2022/10/05 00:06:55;;;;;;;5.83;4.20;;;;;;;;;;5071299;28;20223;-47
2022/10/05 00:09:21;;;;;;;5.67;5.00;;;;;;;;;;5071205;28;20623;-47
2022/10/05 00:11:48;;;;;;;5.37;4.40;;;;;;;;;;5071350;28;20294;-47
2022/10/05 00:14:15;;;;;;;4.83;3.87;;;;;;;;;;5071082;28;20204;-47
2022/10/05 00:16:43;;;;;;;5.80;4.33;;;;;;;;;;5071273;28;20200;-46
2022/10/05 00:19:14;;;;;;;9.03;4.67;;;;;;;;;;5071150;28;20223;-47
2022/10/05 00:21:40;;;;;;;6.00;4.63;;;;;;;;;;5071252;28;20198;-47
2022/10/05 00:24:09;;;;;;;6.20;4.23;;;;;;;;;;5071036;28;20288;-47
2022/10/05 00:26:35;;;;;;;5.70;4.43;;;;;;;;;;5071186;28;20232;-46
2022/10/05 00:29:02;;;;;;;5.47;4.30;;;;;;;;;;5074654;28;20199;-46
2022/10/05 00:31:30;;;;;;;8.27;4.40;;;;;;;;;;5074518;28;20260;-47
2022/10/05 00:33:58;;;;;;;6.87;4.33;;;;;;;;;;5074525;28;20257;-47
2022/10/05 00:36:25;;;;;;;5.10;4.30;;;;;;;;;;5074518;28;20200;-46
2022/10/05 00:38:52;;;;;;;7.83;4.43;;;;;;;;;;5074531;28;20199;-47
2022/10/05 00:41:20;;;;;;;5.93;4.50;;;;;;;;;;5074391;28;20191;-47
2022/10/05 00:44:07;;;;;;;5.70;4.27;;;;;;;;;;5074401;28;20227;-47
2022/10/05 00:46:38;;;;;;;7.83;4.50;;;;;;;;;;5069279;28;20273;-47
2022/10/05 00:49:11;;;;;;;7.20;4.30;;;;;;;;;;5074633;28;20196;-47
2022/10/05 00:51:38;;;;;;;4.87;4.20;;;;;;;;;;5074236;28;20199;-47
2022/10/05 00:54:11;;;;;;;5.73;4.60;;;;;;;;;;5074255;28;20215;-47
2022/10/05 00:56:46;;;;;;;8.63;4.67;;;;;;;;;;5074431;28;20286;-47
2022/10/05 00:59:18;;;;;;;5.77;4.57;;;;;;;;;;5074076;28;20214;-47
2022/10/05 01:01:49;;;;;;;7.27;4.80;;;;;;;;;;5074036;28;20204;-47
2022/10/05 01:04:20;;;;;;;6.50;4.70;;;;;;;;;;5074046;28;20196;-47
2022/10/05 01:06:52;;;;;;;5.73;4.70;;;;;;;;;;5074002;28;20235;-47
2022/10/05 01:09:23;;;;;;;12.77;4.37;;;;;;;;;;5073891;28;20199;-47
2022/10/05 01:11:52;;;;;;;6.70;4.60;;;;;;;;;;5074020;28;20241;-47
2022/10/05 01:14:21;;;;;;;7.43;4.93;;;;;;;;;;5073758;28;20206;-46
2022/10/05 01:16:50;;;;;;;6.23;4.60;;;;;;;;;;5073768;28;20196;-47
2022/10/05 01:19:27;;;;;;;6.40;4.40;;;;;;;;;;5073669;28;20199;-47
2022/10/05 01:21:55;;;;;;;5.40;4.77;;;;;;;;;;5073668;28;20204;-47
2022/10/05 01:24:33;;;;;;;6.70;4.70;;;;;;;;;;5073514;28;20203;-45
2022/10/05 01:27:17;;;;;;;5.87;4.70;;;;;;;;;;5073646;28;20227;-46
2022/10/05 01:29:47;;;;;;;7.23;4.80;;;;;;;;;;5063163;28;20250;-46
2022/10/05 01:32:18;;;;;;;5.37;4.53;;;;;;;;;;5073421;28;20204;-46
2022/10/05 01:34:48;;;;;;;5.47;4.20;;;;;;;;;;5073342;28;20648;-45
2022/10/05 01:37:17;;;;;;;7.00;4.70;;;;;;;;;;5073372;28;20268;-45
2022/10/05 01:39:45;;;;;;;7.20;4.70;;;;;;;;;;5073289;28;20192;-45
2022/10/05 01:42:16;;;;;;;4.57;4.10;;;;;;;;;;5073191;28;20223;-46
2022/10/05 01:44:44;;;;;;;6.30;4.57;;;;;;;;;;5073045;28;20252;-46
2022/10/05 01:47:15;;;;;;;6.03;5.00;;;;;;;;;;5073010;28;20629;-46
2022/10/05 01:49:45;;;;;;;6.83;4.63;;;;;;;;;;5073074;28;20252;-46
2022/10/05 01:52:20;;;;;;;8.20;4.77;;;;;;;;;;5072967;28;20564;-46
2022/10/05 01:54:53;;;;;;;8.43;4.90;;;;;;;;;;5072990;28;20237;-46
2022/10/05 01:57:22;;;;;;;5.67;5.17;;;;;;;;;;5072869;28;20188;-46
2022/10/05 01:59:56;;;;;;;6.87;5.07;;;;;;;;;;5072854;28;20200;-46
2022/10/05 02:02:23;;;;;;;5.97;5.00;;;;;;;;;;5072598;28;20772;-46
2022/10/05 02:04:51;;;;;;;7.47;5.53;;;;;;;;;;5072880;28;20200;-46
2022/10/05 02:07:20;;;;;;;6.23;5.03;;;;;;;;;;5072551;28;20247;-46
2022/10/05 02:09:49;;;;;;;9.00;4.97;;;;;;;;;;5072757;28;20572;-46
2022/10/05 02:12:18;;;;;;;5.80;4.63;;;;;;;;;;5072502;28;20204;-46
2022/10/05 02:14:47;;;;;;;6.70;4.93;;;;;;;;;;5072617;28;20203;-46
2022/10/05 02:17:14;;;;;;;6.13;4.57;;;;;;;;;;5072462;28;20654;-46
2022/10/05 02:19:44;;;;;;;5.93;5.10;;;;;;;;;;5072598;28;20206;-46
2022/10/05 02:22:11;;;;;;;6.90;4.73;;;;;;;;;;5072694;28;20200;-46
2022/10/05 02:24:40;;;;;;;5.67;5.07;;;;;;;;;;5072488;28;20203;-46
2022/10/05 02:27:08;;;;;;;7.27;4.90;;;;;;;;;;5072600;28;20203;-46
2022/10/05 02:29:35;;;;;;;7.90;5.40;;;;;;;;;;5072262;28;20217;-46
2022/10/05 02:32:03;;;;;;;7.83;5.33;;;;;;;;;;5072390;28;20274;-45
2022/10/05 02:34:30;;;;;;;6.60;5.30;;;;;;;;;;5072106;28;20658;-46
2022/10/05 02:37:05;;;;;;;6.43;5.17;;;;;;;;;;5072253;28;20249;-46
2022/10/05 02:39:36;;;;;;;7.97;5.77;;;;;;;;;;5072215;28;20222;-46
2022/10/05 02:42:06;;;;;;;7.33;5.50;;;;;;;;;;5072216;28;20230;-46
2022/10/05 02:44:35;;;;;;;11.13;5.37;;;;;;;;;;5071992;28;20199;-46
2022/10/05 02:47:04;;;;;;;7.67;5.03;;;;;;;;;;5071931;28;20717;-46
2022/10/05 02:49:35;;;;;;;6.80;5.27;;;;;;;;;;5071482;28;20208;-46
2022/10/05 02:52:06;;;;;;;7.30;5.70;;;;;;;;;;5072105;28;20196;-46
2022/10/05 02:54:36;;;;;;;5.90;5.27;;;;;;;;;;5071969;28;20290;-46
2022/10/05 02:57:07;;;;;;;6.70;5.33;;;;;;;;;;5072062;28;20253;-46
2022/10/05 02:59:35;;;;;;;7.37;5.40;;;;;;;;;;5071756;28;20191;-46
2022/10/05 03:02:06;;;;;;;5.77;5.20;;;;;;;;;;5071803;28;20231;-46
2022/10/05 03:04:38;;;;;;;6.73;5.50;;;;;;;;;;5071908;28;20246;-46
2022/10/05 03:07:10;;;;;;;7.53;5.57;;;;;;;;;;5071714;28;20690;-46
2022/10/05 03:09:39;;;;;;;10.43;5.60;;;;;;;;;;5072003;28;20606;-46
2022/10/05 03:12:09;;;;;;;7.53;5.67;;;;;;;;;;5071774;28;20669;-46
2022/10/05 03:14:40;;;;;;;8.07;5.53;;;;;;;;;;5071727;28;20196;-46
2022/10/05 03:17:11;;;;;;;7.03;5.30;;;;;;;;;;5071845;28;20219;-46
2022/10/05 03:19:47;;;;;;;6.40;4.97;;;;;;;;;;5071889;28;20229;-46
2022/10/05 03:22:20;;;;;;;7.83;5.73;;;;;;;;;;5071618;28;20696;-46
2022/10/05 03:24:56;;;;;;;6.60;5.80;;;;;;;;;;5071802;28;20195;-46
2022/10/05 03:27:30;;;;;;;7.07;5.83;;;;;;;;;;5071660;28;20225;-46
2022/10/05 03:29:59;;;;;;;5.77;5.20;;;;;;;;;;5071567;28;20672;-46
2022/10/05 03:32:31;;;;;;;9.03;5.57;;;;;;;;;;5071601;28;20199;-45
2022/10/05 03:35:02;;;;;;;6.33;5.53;;;;;;;;;;5071612;28;20248;-46
2022/10/05 03:37:34;;;;;;;8.20;5.93;;;;;;;;;;5071548;28;20199;-46
2022/10/05 03:40:02;;;;;;;7.73;5.27;;;;;;;;;;5071617;28;20604;-45
2022/10/05 03:42:31;;;;;;;8.17;5.50;;;;;;;;;;5071361;28;20204;-45
2022/10/05 03:45:02;;;;;;;10.00;5.77;;;;;;;;;;5071315;28;20294;-46
2022/10/05 03:47:33;;;;;;;6.57;5.73;;;;;;;;;;5071678;28;20230;-46
2022/10/05 03:50:05;;;;;;;9.63;6.07;;;;;;;;;;5071496;28;20299;-46
2022/10/05 03:52:36;;;;;;;8.87;5.17;;;;;;;;;;5071421;28;20195;-46
2022/10/05 03:55:04;;;;;;;7.33;5.20;;;;;;;;;;5071454;28;20214;-46
2022/10/05 03:57:32;;;;;;;6.77;5.30;;;;;;;;;;5071311;28;20203;-47
2022/10/05 04:00:00;;;;;;;6.50;5.90;;;;;;;;;;5071351;28;20200;-46
2022/10/05 04:02:28;;;;;;;6.73;6.03;;;;;;;;;;5072664;28;20763;-46
2022/10/05 04:04:58;;;;;;;9.93;6.53;;;;;;;;;;5075070;28;20199;-46
2022/10/05 04:07:30;;;;;;;11.97;7.00;;;;;;;;;;5074935;28;20227;-46
2022/10/05 04:09:57;;;;;;;11.10;6.57;;;;;;;;;;5075055;28;20666;-46
2022/10/05 04:12:25;;;;;;;7.50;5.30;;;;;;;;;;5075012;28;20625;-46
2022/10/05 04:14:53;;;;;;;7.23;5.57;;;;;;;;;;5075210;28;20208;-46
2022/10/05 04:17:24;;;;;;;7.20;5.60;;;;;;;;;;5074819;28;20206;-46
2022/10/05 04:19:54;;;;;;;8.47;5.70;;;;;;;;;;5074905;28;20184;-47
2022/10/05 04:22:22;;;;;;;7.30;5.50;;;;;;;;;;5074748;28;20203;-46
2022/10/05 04:24:49;;;;;;;7.57;5.43;;;;;;;;;;5074728;28;20661;-46
2022/10/05 04:27:18;;;;;;;8.03;5.70;;;;;;;;;;5074565;28;20222;-46
2022/10/05 04:29:45;;;;;;;8.53;6.00;;;;;;;;;;5074480;28;20718;-47
2022/10/05 04:32:25;;;;;;;6.43;5.80;;;;;;;;;;5074586;28;20200;-46
2022/10/05 04:34:58;;;;;;;6.63;5.90;;;;;;;;;;5074580;28;20603;-46
2022/10/05 04:37:31;;;;;;;7.57;6.20;;;;;;;;;;5074463;28;20199;-46
2022/10/05 04:40:04;;;;;;;7.17;6.13;;;;;;;;;;5074409;28;20629;-46
2022/10/05 04:42:34;;;;;;;12.07;5.70;;;;;;;;;;5074243;28;20199;-46
2022/10/05 04:45:04;;;;;;;7.10;5.97;;;;;;;;;;5074070;28;20642;-46
2022/10/05 04:47:47;;;;;;;6.70;6.00;;;;;;;;;;5074034;28;20223;-46
2022/10/05 04:50:19;;;;;;;9.03;6.17;;;;;;;;;;5073886;28;20199;-45
2022/10/05 04:52:50;;;;;;;8.03;6.03;;;;;;;;;;5074235;28;20203;-46
2022/10/05 04:55:21;;;;;;;8.83;6.83;;;;;;;;;;5074051;28;20191;-46
2022/10/05 04:57:51;;;;;;;7.27;6.33;;;;;;;;;;5074181;28;20215;-46
2022/10/05 05:00:21;;;;;;;6.87;6.17;;;;;;;;;;5074006;28;20223;-46
2022/10/05 05:02:55;;;;;;;6.33;5.73;;;;;;;;;;5073814;28;20246;-46
2022/10/05 05:05:25;;;;;;;9.27;6.27;;;;;;;;;;5073734;28;20223;-46
2022/10/05 05:07:55;;;;;;;7.97;6.27;;;;;;;;;;5073837;28;20298;-46
2022/10/05 05:10:35;;;;;;;11.00;6.37;;;;;;;;;;5073608;28;20646;-46
2022/10/05 05:13:07;;;;;;;9.93;6.63;;;;;;;;;;5073253;28;20195;-46
2022/10/05 05:15:39;;;;;;;7.73;6.73;;;;;;;;;;5073288;28;20299;-46
2022/10/05 05:18:12;;;;;;;10.23;6.60;;;;;;;;;;5073611;28;20278;-47
2022/10/05 05:20:45;;;;;;;9.93;6.37;;;;;;;;;;5073447;28;20238;-47
2022/10/05 05:23:17;;;;;;;10.77;6.70;;;;;;;;;;5073420;28;20199;-46
2022/10/05 05:25:47;;;;;;;7.47;6.30;;;;;;;;;;5073298;28;20281;-46
2022/10/05 05:28:22;;;;;;;7.57;6.27;;;;;;;;;;5073370;28;20256;-46
2022/10/05 05:30:52;;;;;;;7.67;6.33;;;;;;;;;;5073393;28;20219;-47
2022/10/05 05:33:20;;;;;;;9.67;6.50;;;;;;;;;;5073153;28;20321;-46
2022/10/05 05:36:07;;;;;;;8.07;6.33;;;;;;;;;;5073319;28;20562;-46
2022/10/05 05:38:35;;;;;;;10.80;6.50;;;;;;;;;;5073123;28;20221;-46
2022/10/05 05:41:07;;;;;;;8.40;6.57;;;;;;;;;;5073299;28;20621;-46
2022/10/05 05:43:41;;;;;;;8.97;6.50;;;;;;;;;;5073078;28;20192;-46
2022/10/05 05:46:09;;;;;;;8.50;6.63;;;;;;;;;;5073011;28;20750;-46
2022/10/05 05:48:37;;;;;;;9.63;6.23;;;;;;;;;;5073217;28;20226;-47
2022/10/05 05:51:07;;;;;;;9.10;7.00;;;;;;;;;;5072958;28;20650;-47
2022/10/05 05:53:36;;;;;;;9.10;7.23;;;;;;;;;;5072861;28;20208;-47
2022/10/05 05:56:07;;;;;;;9.57;6.63;;;;;;;;;;5072826;28;20571;-47
2022/10/05 05:58:36;;;;;;;6.97;6.23;;;;;;;;;;5072708;28;20725;-46
2022/10/05 06:01:07;;;;;;;7.60;6.77;;;;;;;;;;5072730;28;20203;-45
2022/10/05 06:03:36;;;;;;;7.20;6.47;;;;;;;;;;5072569;28;20605;-45
2022/10/05 06:06:04;;;;;;;9.10;6.60;;;;;;;;;;5072684;28;20265;-46
2022/10/05 06:08:33;;;;;;;8.90;6.27;;;;;;;;;;5072457;28;20222;-46
2022/10/05 06:11:01;;;;;;;7.40;6.63;;;;;;;;;;5072631;28;20221;-45
2022/10/05 06:13:29;;;;;;;7.60;5.93;;;;;;;;;;5072452;28;20207;-46
2022/10/05 06:15:57;;;;;;;7.57;6.07;;;;;;;;;;5072602;28;20199;-46
2022/10/05 06:18:25;;;;;;;10.43;6.13;;;;;;;;;;5072517;28;20227;-46
2022/10/05 06:20:54;;;;;;;9.97;6.20;;;;;;;;;;5072422;28;20249;-46
2022/10/05 06:23:22;;;;;;;7.43;6.27;;;;;;;;;;5072246;28;20561;-46
2022/10/05 06:25:58;;;;;;;7.33;6.20;;;;;;;;;;5071479;28;20713;-46
2022/10/05 06:28:24;;;;;;;7.73;6.13;;;;;;;;;;5072293;28;20336;-46
2022/10/05 06:30:55;;;;;;;7.07;6.00;;;;;;;;;;5072258;28;20661;-46
2022/10/05 06:33:31;;;;;;;8.53;6.50;;;;;;;;;;5072229;28;20191;-46
2022/10/05 06:36:05;;;;;;;10.17;6.23;;;;;;;;;;5072350;28;20203;-46
2022/10/05 06:38:48;;;;;;;7.13;6.23;;;;;;;;;;5072041;28;20654;-46
2022/10/05 06:41:19;;;;;;;7.03;6.33;;;;;;;;;;5072107;28;20400;-46
2022/10/05 06:43:48;;;;;;;13.03;7.10;;;;;;;;;;5072244;28;20207;-46
2022/10/05 06:46:18;;;;;;;8.17;6.53;;;;;;;;;;5071882;28;20628;-45
2022/10/05 06:48:57;;;;;;;6.80;6.10;;;;;;;;;;5072143;28;20222;-46
2022/10/05 06:51:26;;;;;;;7.83;5.93;;;;;;;;;;5071953;28;20211;-46
2022/10/05 06:53:56;;;;;;;8.77;6.03;;;;;;;;;;5072037;28;20209;-46
2022/10/05 06:56:26;;;;;;;7.57;5.87;;;;;;;;;;5071876;28;20195;-46
2022/10/05 06:58:56;;;;;;;7.27;5.80;;;;;;;;;;5071983;28;20200;-46
2022/10/05 07:01:28;;;;;;;6.90;6.20;;;;;;;;;;5071764;28;20196;-46
2022/10/05 07:04:05;;;;;;;9.37;5.97;;;;;;;;;;5071759;28;20297;-46
2022/10/05 07:06:34;;;;;;;11.57;6.13;;;;;;;;;;5071717;28;20226;-46
2022/10/05 07:09:08;;;;;;;7.30;6.37;;;;;;;;;;5071834;28;20298;-46
2022/10/05 07:11:42;;;;;;;7.17;6.10;;;;;;;;;;5071673;28;20684;-46
2022/10/05 07:14:13;;;;;;;8.83;6.10;;;;;;;;;;5071689;28;20199;-46
2022/10/05 07:16:45;;;;;;;9.93;6.67;;;;;;;;;;5071590;28;20202;-46
2022/10/05 07:19:19;;;;;;;6.90;6.20;;;;;;;;;;5071670;28;20203;-46
2022/10/05 07:21:51;;;;;;;8.47;5.90;;;;;;;;;;5071744;28;20199;-47
2022/10/05 07:24:28;;;;;;;9.27;6.10;;;;;;;;;;5071572;28;20210;-47
2022/10/05 07:26:58;;;;;;;10.17;5.90;;;;;;;;;;5071634;28;20223;-47
2022/10/05 07:29:28;;;;;;;6.63;5.47;;;;;;;;;;5071462;28;20202;-47
2022/10/05 07:32:01;;;;;;;7.73;5.70;;;;;;;;;;5071567;28;20624;-47
2022/10/05 07:34:34;;;;;;;6.23;5.37;;;;;;;;;;5071478;28;20611;-47
2022/10/05 07:39:52;;;;;;;7.47;5.83;;;;;;;;;;5075605;28;20260;-48
2022/10/05 07:42:24;;;;;;;7.67;5.67;;;;;;;;;;5075462;28;20204;-47
2022/10/05 07:44:53;;;;;;;6.53;5.60;;;;;;;;;;5075548;28;20199;-47
2022/10/05 07:47:23;;;;;;;9.37;6.03;;;;;;;;;;5075232;28;20227;-47
2022/10/05 07:49:52;;;;;;;8.27;5.50;;;;;;;;;;5075436;28;20199;-47
2022/10/05 07:52:23;;;;;;;10.57;6.33;;;;;;;;;;5075292;28;20252;-47
2022/10/05 07:55:01;;;;;;;8.90;5.83;;;;;;;;;;5075344;28;20265;-46
2022/10/05 07:57:32;;;;;;;6.07;5.23;;;;;;;;;;5075131;28;20191;-46
2022/10/05 08:00:01;;;;;;;6.27;5.43;;;;;;;;;;5075258;28;20199;-46
2022/10/05 08:02:28;;;;;;;6.60;5.90;;;;;;;;;;5074876;28;20259;-46
2022/10/05 08:04:59;;;;;;;7.33;5.43;;;;;;;;;;5075008;28;20191;-47
2022/10/05 08:07:26;;;;;;;7.67;5.90;;;;;;;;;;5074843;28;20238;-47
2022/10/05 08:09:54;;;;;;;7.47;5.93;;;;;;;;;;5075034;28;20199;-47
2022/10/05 08:12:23;;;;;;;6.07;5.47;;;;;;;;;;5074803;28;20204;-46
2022/10/05 08:14:52;;;;;;;8.83;5.83;;;;;;;;;;5074961;28;20204;-47
2022/10/05 08:17:22;;;;;;;6.53;5.80;;;;;;;;;;5074783;28;20283;-46
2022/10/05 08:19:51;;;;;;;7.60;6.40;;;;;;;;;;5074879;28;20198;-47
2022/10/05 08:22:23;;;;;;;6.87;5.40;;;;;;;;;;5074707;28;20199;-47
2022/10/05 08:24:54;;;;;;;7.87;5.60;;;;;;;;;;5074582;28;20572;-47
2022/10/05 08:27:23;;;;;;;6.80;5.10;;;;;;;;;;5074462;28;20236;-47
2022/10/05 08:29:52;;;;;;;7.47;5.47;;;;;;;;;;5074656;28;20217;-47
2022/10/05 08:32:22;;;;;;;6.53;5.13;;;;;;;;;;5074614;28;20219;-47
2022/10/05 08:34:50;;;;;;;8.17;5.50;;;;;;;;;;5074520;28;20578;-46
2022/10/05 08:37:19;;;;;;;6.27;5.40;;;;;;;;;;5074478;28;20198;-46
2022/10/05 08:39:52;;;;;;;8.00;5.73;;;;;;;;;;5074227;28;20203;-46
2022/10/05 08:42:36;;;;;;;6.13;5.50;;;;;;;;;;5074180;28;20950;-47
2022/10/05 08:45:32;;;;;;;9.00;5.20;;;;;;;;;;5074378;28;20186;-47
2022/10/05 08:48:09;;;;;;;5.33;4.83;;;;;;;;;;5011486;28;20206;-46
2022/10/05 08:50:47;;;;;;;5.30;4.80;;;;;;;;;;5063589;28;20226;-46
2022/10/05 08:53:20;;;;;;;5.90;5.33;;;;;;;;;;5074320;28;20217;-46
2022/10/05 08:55:51;;;;;;;6.00;4.77;;;;;;;;;;5074131;28;20192;-46
2022/10/05 08:58:35;;;;;;;7.50;4.77;;;;;;;;;;5074027;28;20261;-46
2022/10/05 09:01:04;;;;;;;7.80;5.17;;;;;;;;;;5074114;28;20735;-46
2022/10/05 09:03:39;;;;;;;7.30;4.97;;;;;;;;;;5073677;28;20263;-46
2022/10/05 09:06:27;;;;;;;7.13;4.50;;;;;;;;;;5074021;28;20288;-46
2022/10/05 09:09:05;;;;;;;8.80;5.10;;;;;;;;;;5073832;28;20264;-46
2022/10/05 09:11:35;;;;;;;7.00;4.40;;;;;;;;;;5073768;28;20188;-46
2022/10/05 09:14:28;;;;;;;5.67;4.50;;;;;;;;;;5073820;28;20191;-46
2022/10/05 09:17:01;;;;;;;4.47;4.07;;;;;;;;;;5037640;28;20590;-47
2022/10/05 09:19:42;;;;;;;4.80;4.27;;;;;;;;;;5073736;28;20257;-54
2022/10/05 09:22:14;;;;;;;5.37;4.43;;;;;;;;;;5073899;28;20196;-46
2022/10/05 09:24:50;;;;;;;5.03;4.30;;;;;;;;;;5073493;28;20688;-47
2022/10/05 09:27:18;;;;;;;4.73;3.63;;;;;;;;;;5073406;28;20779;-47
2022/10/05 09:30:03;;;;;;;5.43;4.10;;;;;;;;;;5073474;28;20200;-45
2022/10/05 09:32:47;;;;;;;4.77;3.70;;;;;;;;;;5073409;28;20195;-46
2022/10/05 09:35:21;;;;;;;4.30;3.70;;;;;;;;;;5073236;28;20206;-46
2022/10/05 09:38:07;;;;;;;4.03;3.63;;;;;;;;;;5073368;28;20195;-47
2022/10/05 09:40:43;;;;;;;3.80;3.37;;;;;;;;;;5073246;28;20203;-47
2022/10/05 09:43:18;;;;;;;7.37;3.80;;;;;;;;;;5073157;28;20226;-48
2022/10/05 09:45:52;;;;;;;5.47;3.40;;;;;;;;;;5073097;28;20506;-48
2022/10/05 09:48:27;;;;;;;4.13;3.70;;;;;;;;;;5073089;28;20232;-45
2022/10/05 09:51:06;;;;;;;6.70;4.20;;;;;;;;;;5073154;28;20203;-48
2022/10/05 09:53:46;;;;;;;5.03;3.60;;;;;;;;;;5072977;28;20201;-47
2022/10/05 09:56:25;;;;;;;4.00;3.50;;;;;;;;;;5073008;28;20215;-47
2022/10/05 09:59:08;;;;;;;5.23;3.90;;;;;;;;;;5072814;28;20242;-45
2022/10/05 10:01:50;;;;;;;4.17;3.53;;;;;;;;;;5072608;28;20200;-48
2022/10/05 10:04:39;;;;;;;4.57;4.10;;;;;;;;;;5072747;28;20258;-47
2022/10/05 10:07:21;;;;;;;5.37;3.57;;;;;;;;;;5072702;28;20307;-47
2022/10/05 10:09:52;;;;;;;4.37;3.80;;;;;;;;;;5072858;28;20211;-47
2022/10/05 10:12:32;;;;;;;7.27;4.33;;;;;;;;;;5072657;28;20214;-48
2022/10/05 10:15:16;;;;;;;6.10;4.17;;;;;;;;;;5072662;28;20199;-47
2022/10/05 10:17:55;;;;;;;4.40;4.00;;;;;;;;;;5072391;28;20325;-47
2022/10/05 10:20:29;;;;;;;6.10;4.53;;;;;;;;;;5072399;28;20307;-45
2022/10/05 10:23:13;;;;;;;4.33;3.93;;;;;;;;;;5072569;28;20199;-47
2022/10/05 10:25:47;;;;;;;5.00;4.50;;;;;;;;;;5072304;28;20223;-46
2022/10/05 10:28:31;;;;;;;4.97;4.20;;;;;;;;;;5073244;28;20199;-47
2022/10/05 10:31:03;;;;;;;4.60;4.20;;;;;;;;;;5072401;28;20195;-47
2022/10/05 10:33:45;;;;;;;4.20;3.80;;;;;;;;;;5072143;28;20206;-47
2022/10/05 10:36:16;;;;;;;4.23;3.63;;;;;;;;;;5072236;28;20210;-47
2022/10/05 10:38:50;;;;;;;4.90;4.03;;;;;;;;;;5072189;28;20207;-47
2022/10/05 10:41:31;;;;;;;4.53;4.13;;;;;;;;;;5072253;28;20202;-47
2022/10/05 10:44:30;;;;;;;4.90;4.03;;;;;;;;;;5072131;28;20203;-47
2022/10/05 10:47:07;;;;;;;4.40;3.80;;;;;;;;;;5010121;28;20319;-50
2022/10/05 10:49:41;;;;;;;4.60;4.07;;;;;;;;;;5010126;28;20205;-47
2022/10/05 10:52:12;;;;;;;3.90;3.50;;;;;;;;;;5044872;28;20246;-47
2022/10/05 10:54:56;;;;;;;5.17;3.37;;;;;;;;;;5071943;28;20700;-47
2022/10/05 10:57:25;;;;;;;6.07;3.83;;;;;;;;;;5071729;28;20252;-48
2022/10/05 11:00:15;;;;;;;5.90;3.43;;;;;;;;;;5072005;28;20195;-47
2022/10/05 11:02:52;;;;;;;5.50;3.73;;;;;;;;;;5056195;28;20237;-47
2022/10/05 11:05:32;;;;;;;5.47;3.33;;;;;;;;;;5071877;28;20227;-48
2022/10/05 11:08:12;;;;;;;6.43;3.30;;;;;;;;;;5071882;28;20246;-47
2022/10/05 11:11:05;;;;;;;4.03;3.30;;;;;;;;;;5071301;28;20282;-47
2022/10/05 11:13:46;;;;;;;5.23;3.00;;;;;;;;;;5035584;28;20208;-46
2022/10/05 11:16:36;;;;;;;3.80;3.00;;;;;;;;;;5071851;28;20192;-46
2022/10/05 11:19:19;;;;;;;4.73;2.80;;;;;;;;;;5071814;28;20200;-46
2022/10/05 11:21:53;;;;;;;3.47;3.10;;;;;;;;;;5071623;28;20571;-47
2022/10/05 11:24:31;;;;;;;4.73;2.87;;;;;;;;;;5071736;28;20207;-46
2022/10/05 11:27:07;;;;;;;3.27;2.90;;;;;;;;;;5071651;28;20249;-46
2022/10/05 11:29:48;;;;;;;4.63;3.23;;;;;;;;;;5071495;28;20198;-46
2022/10/05 11:32:20;;;;;;;4.97;2.63;;;;;;;;;;5058807;28;20196;-46
2022/10/05 11:34:58;;;;;;;4.47;2.90;;;;;;;;;;5071450;28;20213;-46
2022/10/05 11:37:41;;;;;;;4.43;3.00;;;;;;;;;;5071205;28;20192;-46
2022/10/05 11:40:15;;;;;;;5.27;3.10;;;;;;;;;;5071662;28;20222;-47
2022/10/05 11:42:52;;;;;;;4.57;2.70;;;;;;;;;;5071324;28;20730;-47
2022/10/05 11:45:31;;;;;;;6.20;2.93;;;;;;;;;;5071515;28;20252;-47
2022/10/05 11:48:07;;;;;;;3.70;2.70;;;;;;;;;;5071506;28;20314;-46
2022/10/05 11:50:38;;;;;;;4.03;2.87;;;;;;;;;;5071322;28;20207;-47
2022/10/05 11:53:08;;;;;;;3.07;2.50;;;;;;;;;;5071408;28;20279;-46
2022/10/05 11:55:37;;;;;;;4.50;2.90;;;;;;;;;;5071315;28;20617;-47
2022/10/05 11:58:06;;;;;;;5.40;2.50;;;;;;;;;;5071329;28;20276;-46
2022/10/05 12:00:36;;;;;;;4.30;2.53;;;;;;;;;;5071251;28;20681;-46
2022/10/05 12:03:15;;;;;;;3.57;2.80;;;;;;;;;;5071331;28;20335;-47
2022/10/05 12:05:48;;;;;;;2.40;2.20;;;;;;;;;;5071124;28;20201;-47
2022/10/05 12:08:28;;;;;;;4.53;2.30;;;;;;;;;;5071113;28;20225;-48
2022/10/05 12:11:01;;;;;;;3.27;2.63;;;;;;;;;;5071271;28;20247;-47
2022/10/05 12:13:32;;;;;;;4.80;2.53;;;;;;;;;;5071231;28;20215;-48
2022/10/05 12:16:02;;;;;;;2.83;2.60;;;;;;;;;;5071261;28;20241;-47
2022/10/05 12:18:43;;;;;;;4.27;2.43;;;;;;;;;;5071086;28;20207;-47
2022/10/05 12:21:13;;;;;;;4.63;2.70;;;;;;;;;;5071029;28;20202;-48
2022/10/05 12:23:43;;;;;;;4.50;2.40;;;;;;;;;;5072679;28;20196;-47
2022/10/05 12:26:11;;;;;;;3.90;2.30;;;;;;;;;;5074613;28;20233;-48
2022/10/05 12:28:40;;;;;;;3.17;2.47;;;;;;;;;;5074584;28;20301;-48
2022/10/05 12:31:15;;;;;;;3.60;2.40;;;;;;;;;;5074923;28;20197;-48
2022/10/05 12:33:45;;;;;;;4.67;2.33;;;;;;;;;;5074420;28;20290;-48
2022/10/05 12:36:14;;;;;;;4.67;2.80;;;;;;;;;;5074426;28;20223;-47
2022/10/05 12:38:45;;;;;;;4.57;2.40;;;;;;;;;;5074290;28;20687;-47
2022/10/05 12:41:16;;;;;;;4.73;2.57;;;;;;;;;;5074223;28;20294;-46
2022/10/05 12:43:46;;;;;;;4.20;2.30;;;;;;;;;;5074328;28;20234;-47
2022/10/05 12:46:16;;;;;;;6.50;2.63;;;;;;;;;;5074259;28;20219;-47
2022/10/05 12:48:51;;;;;;;3.43;2.20;;;;;;;;;;5074238;28;20654;-47
2022/10/05 12:51:21;;;;;;;7.17;2.10;;;;;;;;;;5074332;28;20210;-47
2022/10/05 12:53:54;;;;;;;2.97;2.20;;;;;;;;;;5074174;28;20610;-46
2022/10/05 12:56:23;;;;;;;3.83;2.47;;;;;;;;;;5074119;28;20273;-47
2022/10/05 12:58:51;;;;;;;3.23;2.10;;;;;;;;;;5074052;28;20203;-47
2022/10/05 13:01:20;;;;;;;2.83;2.20;;;;;;;;;;5074018;28;20673;-47
2022/10/05 13:03:49;;;;;;;3.00;2.13;;;;;;;;;;5073781;28;20239;-47
2022/10/05 13:06:21;;;;;;;4.67;2.77;;;;;;;;;;5074039;28;20234;-47
2022/10/05 13:08:54;;;;;;;3.17;2.50;;;;;;;;;;5073835;28;20231;-47
2022/10/05 13:11:23;;;;;;;2.87;2.53;;;;;;;;;;5073922;28;20684;-47
2022/10/05 13:13:55;;;;;;;3.60;2.63;;;;;;;;;;5073896;28;20566;-47
2022/10/05 13:16:28;;;;;;;3.43;2.33;;;;;;;;;;5073858;28;20199;-46
2022/10/05 13:18:59;;;;;;;2.50;2.30;;;;;;;;;;5073961;28;20203;-47
2022/10/05 13:21:29;;;;;;;5.80;2.80;;;;;;;;;;5073728;28;20260;-47
2022/10/05 13:23:59;;;;;;;3.37;2.30;;;;;;;;;;5073574;28;20203;-47
2022/10/05 13:26:27;;;;;;;2.67;2.40;;;;;;;;;;5072095;28;20735;-46
2022/10/05 13:28:56;;;;;;;3.20;2.30;;;;;;;;;;5073626;28;20285;-48
2022/10/05 13:31:24;;;;;;;6.70;2.30;;;;;;;;;;5073471;28;20688;-48
2022/10/05 13:34:08;;;;;;;4.23;2.47;;;;;;;;;;5073025;28;20290;-48
2022/10/05 13:36:37;;;;;;;3.73;2.50;;;;;;;;;;5073189;28;20656;-48
2022/10/05 13:39:09;;;;;;;4.37;2.53;;;;;;;;;;5073456;28;20501;-48
2022/10/05 13:41:40;;;;;;;3.33;2.70;;;;;;;;;;5073238;28;20200;-48
2022/10/05 13:44:14;;;;;;;4.77;2.60;;;;;;;;;;5073108;28;20672;-46
2022/10/05 13:46:43;;;;;;;2.40;2.10;;;;;;;;;;5072938;28;20255;-46
2022/10/05 13:49:19;;;;;;;2.87;2.27;;;;;;;;;;5073207;28;20198;-46
2022/10/05 13:51:48;;;;;;;2.93;2.40;;;;;;;;;;5072981;28;20213;-46
2022/10/05 13:54:18;;;;;;;3.83;2.20;;;;;;;;;;5073061;28;20244;-48
2022/10/05 13:56:45;;;;;;;2.20;2.00;;;;;;;;;;5072897;28;20200;-48
2022/10/05 13:59:15;;;;;;;2.80;2.37;;;;;;;;;;5073300;28;20289;-48
2022/10/05 14:01:43;;;;;;;3.47;2.13;;;;;;;;;;5072745;28;20569;-46
2022/10/05 14:04:15;;;;;;;3.17;2.10;;;;;;;;;;5073070;28;20588;-48
2022/10/05 14:06:41;;;;;;;4.57;2.30;;;;;;;;;;5072684;28;20237;-48
2022/10/05 14:09:10;;;;;;;4.40;2.13;;;;;;;;;;5072699;28;20227;-48
2022/10/05 14:11:47;;;;;;;5.63;2.10;;;;;;;;;;5072568;28;20194;-47
2022/10/05 14:14:14;;;;;;;3.93;2.03;;;;;;;;;;5072653;28;20212;-47
2022/10/05 14:16:45;;;;;;;2.93;1.83;;;;;;;;;;5072560;28;20203;-48
2022/10/05 14:19:17;;;;;;;2.30;2.10;;;;;;;;;;5072596;28;20629;-48
2022/10/05 14:21:48;;;;;;;2.60;2.10;;;;;;;;;;5072441;28;20199;-48
2022/10/05 14:24:18;;;;;;;5.80;1.90;;;;;;;;;;5072550;28;20247;-47
2022/10/05 14:26:51;;;;;;;4.60;2.00;;;;;;;;;;5072166;28;20230;-48
2022/10/05 14:29:19;;;;;;;3.33;2.30;;;;;;;;;;5072387;28;20584;-48
2022/10/05 14:31:49;;;;;;;2.20;2.00;;;;;;;;;;5072198;28;20197;-47
2022/10/05 14:34:26;;;;;;;3.83;1.80;;;;;;;;;;5072232;28;20202;-47
2022/10/05 14:37:08;;;;;;;2.03;1.83;;;;;;;;;;5072363;28;20208;-48
2022/10/05 14:39:40;;;;;;;5.40;2.30;;;;;;;;;;5072169;28;20206;-48
2022/10/05 14:42:15;;;;;;;4.13;2.10;;;;;;;;;;5072219;28;20201;-47
2022/10/05 14:44:41;;;;;;;3.47;1.93;;;;;;;;;;5072113;28;20444;-47
2022/10/05 14:47:18;;;;;;;4.93;1.93;;;;;;;;;;5071383;28;20312;-48
2022/10/05 14:49:48;;;;;;;2.70;1.93;;;;;;;;;;5072290;28;20585;-47
2022/10/05 14:52:27;;;;;;;3.00;2.17;;;;;;;;;;5072107;28;20201;-47
2022/10/05 14:54:58;;;;;;;2.50;2.00;;;;;;;;;;5072123;28;20280;-48
2022/10/05 14:57:30;;;;;;;2.47;1.97;;;;;;;;;;5071992;28;20255;-47
2022/10/05 15:00:01;;;;;;;2.80;2.10;;;;;;;;;;5071874;28;20620;-47
2022/10/05 15:02:35;;;;;;;2.63;1.97;;;;;;;;;;5071661;28;20643;-47
2022/10/05 15:05:03;;;;;;;2.63;1.80;;;;;;;;;;5071973;28;20198;-47
2022/10/05 15:07:34;;;;;;;2.10;1.90;;;;;;;;;;5071593;28;20319;-47
2022/10/05 15:10:04;;;;;;;5.20;2.13;;;;;;;;;;5071757;28;20663;-48
2022/10/05 15:12:34;;;;;;;2.20;2.00;;;;;;;;;;5071631;28;20193;-48
2022/10/05 15:15:02;;;;;;;4.53;1.90;;;;;;;;;;5071723;28;20281;-48
2022/10/05 15:17:33;;;;;;;2.63;2.17;;;;;;;;;;5071686;28;20697;-48